Aviation Digital Data Service (ADDS)

Output produced by METARs form (2156 UTC 04 August 2015)
found at http://www.aviationweather.gov/adds/metars/
 
KWWD 042155Z AUTO 34003KT 10SM CLR 31/19 A2989 RMK AO1